createdAt,value
2023-05-14T00:04:50.066Z,4.37
2023-05-14T00:09:55.899Z,4.67
2023-05-14T00:14:59.867Z,5.10
2023-05-14T00:20:07.340Z,4.30
2023-05-14T00:25:13.944Z,4.70
2023-05-14T00:30:18.121Z,4.83
2023-05-14T00:35:22.953Z,5.10
2023-05-14T00:40:29.880Z,4.90
2023-05-14T00:45:34.155Z,4.53
2023-05-14T00:50:39.226Z,4.60
2023-05-14T00:55:45.934Z,4.47
2023-05-14T01:00:50.304Z,4.00
2023-05-14T01:06:02.801Z,4.63
2023-05-14T01:11:13.509Z,4.37
2023-05-14T01:16:20.360Z,4.33
2023-05-14T01:21:35.963Z,4.27
2023-05-14T01:26:39.856Z,4.33
2023-05-14T01:31:47.708Z,4.10
2023-05-14T01:36:55.077Z,4.53
2023-05-14T01:41:59.521Z,3.80
2023-05-14T01:47:04.961Z,5.33
2023-05-14T01:52:14.317Z,4.93
2023-05-14T01:57:18.436Z,5.73
2023-05-14T02:02:23.194Z,5.20
2023-05-14T02:07:28.988Z,6.60
2023-05-14T02:12:33.661Z,6.10
2023-05-14T02:17:38.309Z,7.20
2023-05-14T02:22:46.444Z,5.37
2023-05-14T02:27:50.975Z,5.13
2023-05-14T02:32:55.231Z,5.53
2023-05-14T02:38:00.969Z,5.37
2023-05-14T02:43:06.337Z,5.80
2023-05-14T02:48:10.609Z,6.43
2023-05-14T02:53:17.105Z,7.90
2023-05-14T02:58:26.030Z,7.27
2023-05-14T03:03:33.006Z,5.87
2023-05-14T03:08:41.813Z,6.13
2023-05-14T03:13:45.856Z,5.70
2023-05-14T03:18:50.665Z,6.27
2023-05-14T03:23:57.473Z,6.00
2023-05-14T03:29:01.407Z,6.83
2023-05-14T03:34:05.541Z,7.33
2023-05-14T03:39:11.493Z,5.70
2023-05-14T03:44:15.824Z,5.87
2023-05-14T03:49:20.109Z,6.03
2023-05-14T03:54:26.296Z,6.80
2023-05-14T03:59:30.701Z,7.17
2023-05-14T04:04:34.762Z,8.93
2023-05-14T04:09:42.025Z,6.37
2023-05-14T04:14:46.801Z,6.20
2023-05-14T04:19:51.597Z,7.07
2023-05-14T04:24:57.837Z,6.10
2023-05-14T04:30:02.505Z,5.03
2023-05-14T04:35:10.674Z,3.93
2023-05-14T04:40:17.134Z,3.83
2023-05-14T04:45:21.530Z,3.60
2023-05-14T04:50:27.473Z,4.10
2023-05-14T04:55:35.464Z,4.30
2023-05-14T05:00:40.358Z,3.03
2023-05-14T05:05:45.255Z,2.90
2023-05-14T05:10:51.349Z,2.10
2023-05-14T05:15:55.500Z,2.53
2023-05-14T05:21:00.679Z,2.07
2023-05-14T05:26:07.470Z,2.10
2023-05-14T05:31:12.050Z,2.50
2023-05-14T05:36:16.441Z,2.27
2023-05-14T05:41:22.742Z,2.30
2023-05-14T05:46:27.351Z,2.17
2023-05-14T05:51:32.103Z,2.10
2023-05-14T05:56:38.140Z,2.30
2023-05-14T06:01:43.951Z,2.20
2023-05-14T06:06:48.149Z,2.30
2023-05-14T06:11:55.565Z,2.20
2023-05-14T06:17:01.992Z,2.30
2023-05-14T06:22:07.066Z,2.37
2023-05-14T06:27:13.919Z,2.10
2023-05-14T06:32:18.193Z,2.47
2023-05-14T06:37:23.250Z,2.17
2023-05-14T06:42:31.038Z,2.10
2023-05-14T06:47:36.957Z,1.95
2023-05-14T06:52:41.586Z,2.03
2023-05-14T07:17:19.768Z,2.05
2023-05-14T07:22:23.281Z,1.85
2023-05-14T07:27:27.174Z,1.80
2023-05-14T07:32:32.322Z,1.60
2023-05-14T07:37:36.030Z,2.08
2023-05-14T07:42:39.480Z,2.05
2023-05-14T07:47:44.609Z,2.10
2023-05-14T07:52:48.091Z,2.00
2023-05-14T07:57:51.518Z,1.77
2023-05-14T08:02:56.885Z,2.70
2023-05-14T08:08:00.468Z,1.80
2023-05-14T08:13:03.959Z,1.95
2023-05-14T08:18:08.924Z,1.90
2023-05-14T08:23:12.624Z,2.05
2023-05-14T08:28:15.998Z,1.83
2023-05-14T08:33:20.822Z,1.90
2023-05-14T08:38:24.232Z,2.10
2023-05-14T08:43:31.966Z,1.73
2023-05-14T08:48:37.883Z,1.70
2023-05-14T08:53:41.957Z,1.67
2023-05-14T08:58:45.932Z,1.48
2023-05-14T09:03:51.791Z,1.60
2023-05-14T09:08:56.073Z,1.60
2023-05-14T09:13:59.856Z,1.73
2023-05-14T09:19:05.133Z,3.08
2023-05-14T09:24:09.973Z,1.90
2023-05-14T09:29:13.653Z,3.08
2023-05-14T09:34:25.485Z,1.83
2023-05-14T09:39:29.425Z,2.30
2023-05-14T09:44:33.340Z,4.00
2023-05-14T09:49:38.178Z,4.32
2023-05-14T09:54:42.360Z,2.05
2023-05-14T09:59:45.897Z,1.90
2023-05-14T10:04:53.147Z,1.75
2023-05-14T10:10:03.314Z,2.10
2023-05-14T10:15:18.342Z,2.40
2023-05-14T10:20:25.279Z,2.00
2023-05-14T10:25:29.689Z,1.60
2023-05-14T10:30:33.859Z,2.00
2023-05-14T10:36:03.631Z,1.77
2023-05-14T10:41:10.940Z,1.75
2023-05-14T10:46:16.256Z,2.00
2023-05-14T10:51:23.228Z,2.63
2023-05-14T10:56:27.716Z,2.67
2023-05-14T11:01:32.216Z,2.22
2023-05-14T11:06:43.369Z,2.17
2023-05-14T11:11:47.847Z,2.28
2023-05-14T11:16:52.132Z,2.53
2023-05-14T11:21:57.965Z,2.60
2023-05-14T11:27:03.830Z,2.10
2023-05-14T11:32:08.552Z,2.35
2023-05-14T11:37:16.520Z,2.30
2023-05-14T11:42:22.587Z,2.00
2023-05-14T11:47:26.761Z,2.22
2023-05-14T11:52:32.917Z,2.10
2023-05-14T11:57:37.782Z,2.25
2023-05-14T12:02:42.122Z,2.50
2023-05-14T12:07:49.293Z,2.58
2023-05-14T12:12:55.207Z,2.20
2023-05-14T12:18:02.041Z,2.30
2023-05-14T12:23:12.009Z,2.13
2023-05-14T12:28:17.313Z,2.08
2023-05-14T12:33:23.418Z,2.27
2023-05-14T12:38:31.732Z,2.50
2023-05-14T12:43:35.613Z,2.33
2023-05-14T12:48:41.712Z,2.33
2023-05-14T12:53:47.986Z,2.40
2023-05-14T12:58:51.778Z,2.08
2023-05-14T13:03:55.797Z,2.50
2023-05-14T13:09:04.234Z,2.10
2023-05-14T13:14:10.146Z,2.50
2023-05-14T13:19:16.995Z,5.30
2023-05-14T13:24:25.348Z,7.90
2023-05-14T13:29:31.680Z,4.30
2023-05-14T13:34:35.747Z,3.33
2023-05-14T13:39:41.798Z,3.22
2023-05-14T13:44:45.674Z,2.97
2023-05-14T13:49:49.496Z,6.45
2023-05-14T13:54:54.739Z,2.30
2023-05-14T14:00:00.867Z,2.50
2023-05-14T14:05:14.670Z,2.45
2023-05-14T14:10:21.019Z,2.40
2023-05-14T14:15:25.366Z,2.40
2023-05-14T14:20:32.155Z,2.35
2023-05-14T14:25:39.020Z,2.60
2023-05-14T14:30:44.259Z,2.25
2023-05-14T14:35:48.269Z,2.37
2023-05-14T14:40:53.850Z,2.70
2023-05-14T14:46:00.254Z,2.28
2023-05-14T14:51:05.999Z,2.30
2023-05-14T14:56:11.754Z,2.50
2023-05-14T15:01:18.335Z,2.80
2023-05-14T15:06:23.218Z,2.70
2023-05-14T15:11:30.218Z,2.60
2023-05-14T15:16:34.191Z,2.60
2023-05-14T15:21:38.298Z,2.37
2023-05-14T15:26:43.957Z,2.50
2023-05-14T15:31:47.852Z,2.80
2023-05-14T15:36:51.722Z,2.80
2023-05-14T15:41:57.394Z,2.73
2023-05-14T15:47:01.207Z,2.43
2023-05-14T15:52:05.176Z,2.60
2023-05-14T15:57:10.504Z,2.60
2023-05-14T16:02:15.104Z,2.60
2023-05-14T16:07:18.890Z,2.30
2023-05-14T16:12:24.561Z,2.97
2023-05-14T16:17:28.686Z,2.40
2023-05-14T16:22:34.822Z,2.77
2023-05-14T16:27:40.678Z,2.40
2023-05-14T16:32:46.785Z,2.40
2023-05-14T16:37:51.656Z,2.17
2023-05-14T16:42:57.215Z,1.80
2023-05-14T16:48:01.880Z,1.80
2023-05-14T16:53:05.863Z,2.00
2023-05-14T16:58:11.398Z,2.37
2023-05-14T17:03:15.242Z,2.20
2023-05-14T17:08:19.545Z,2.00
2023-05-14T17:13:25.260Z,2.07
2023-05-14T17:18:28.967Z,1.90
2023-05-14T17:23:32.856Z,2.30
2023-05-14T17:28:38.280Z,2.10
2023-05-14T17:33:42.388Z,2.47
2023-05-14T17:38:46.162Z,2.23
2023-05-14T17:43:52.604Z,2.03
2023-05-14T17:48:56.625Z,2.10
2023-05-14T17:54:03.017Z,2.47
2023-05-14T17:59:08.223Z,2.47
2023-05-14T18:04:15.129Z,2.33
2023-05-14T18:09:19.366Z,2.30
2023-05-14T18:14:24.738Z,2.30
2023-05-14T18:19:28.498Z,2.20
2023-05-14T18:24:32.167Z,2.73
2023-05-14T18:29:39.690Z,2.93
2023-05-14T18:34:44.216Z,2.40
2023-05-14T18:39:48.190Z,2.47
2023-05-14T18:44:55.012Z,2.37
2023-05-14T18:50:00.644Z,2.57
2023-05-14T18:55:07.481Z,2.80
2023-05-14T19:00:18.136Z,2.80
2023-05-14T19:05:23.030Z,2.70
2023-05-14T19:11:25.404Z,2.97
2023-05-14T19:17:30.848Z,3.00
2023-05-14T19:23:58.695Z,2.83
2023-05-14T19:29:49.151Z,3.20
2023-05-14T19:35:09.170Z,3.40
2023-05-14T19:40:13.733Z,3.40
2023-05-14T19:45:19.243Z,3.33
2023-05-14T19:50:23.338Z,3.37
2023-05-14T19:55:28.001Z,3.60
2023-05-14T20:00:35.010Z,3.30
2023-05-14T20:05:39.815Z,4.27
2023-05-14T20:10:45.814Z,3.50
2023-05-14T20:15:52.575Z,3.67
2023-05-14T20:20:57.638Z,3.80
2023-05-14T20:26:02.559Z,3.43
2023-05-14T20:31:09.789Z,3.60
2023-05-14T20:36:15.243Z,3.83
2023-05-14T20:41:21.052Z,3.90
2023-05-14T20:46:27.142Z,4.20
2023-05-14T20:51:31.914Z,4.40
2023-05-14T20:56:36.831Z,4.17
2023-05-14T21:01:42.798Z,4.63
2023-05-14T21:06:46.995Z,4.43
2023-05-14T21:11:51.053Z,4.67
2023-05-14T21:16:57.109Z,4.77
2023-05-14T21:22:01.142Z,4.70
2023-05-14T21:27:05.789Z,4.97
2023-05-14T21:32:12.077Z,5.17
2023-05-14T21:37:17.596Z,5.20
2023-05-14T21:42:22.798Z,4.87
2023-05-14T21:47:29.062Z,5.00
2023-05-14T21:52:33.782Z,4.63
2023-05-14T21:57:38.857Z,4.77
2023-05-14T22:02:45.051Z,4.60
2023-05-14T22:07:49.804Z,5.27
2023-05-14T22:12:54.946Z,4.70
2023-05-14T22:18:01.887Z,4.60
2023-05-14T22:23:06.502Z,4.77
2023-05-14T22:28:11.796Z,5.40
2023-05-14T22:33:19.409Z,5.33
2023-05-14T22:38:24.805Z,5.90
2023-05-14T22:43:29.464Z,5.57
2023-05-14T22:48:35.456Z,5.30
2023-05-14T22:53:40.790Z,5.47
2023-05-14T22:58:44.895Z,5.90
2023-05-14T23:03:51.276Z,5.93
2023-05-14T23:08:55.428Z,5.80
2023-05-14T23:13:59.615Z,5.93
2023-05-14T23:19:05.611Z,5.77
2023-05-14T23:24:10.323Z,5.33
2023-05-14T23:29:14.475Z,5.47
2023-05-14T23:34:22.331Z,5.80
2023-05-14T23:39:27.998Z,5.80
2023-05-14T23:44:33.411Z,5.13
2023-05-14T23:49:40.970Z,6.10
2023-05-14T23:54:46.100Z,5.47
2023-05-14T23:59:50.867Z,5.73
